Etusivu
METAR-TAF:

METAR-TAF

Lentoasemat :

Burnet Municipal Airport (Kate Craddock Field)

Burnet, Texas, Yhdysvallat

Leveyspiiri: 30-44-26N, Pituuspiiri: 098-14-07W, korkeus merenpinnasta: 392 m

Tämänhetkinen sää

Tämä raportti tehtiin 1 tunti ja 12 minuuttia sitten, kello 20.53 UTC
Tuuli 18 kn lännestä/luoteesta puuskistuen 26 kn:hen
Lämpötila 15°C
Kosteus 51%
Ilmanpaine 1012 hPa
Näkyvyys: 16.1 km
Muutamia pilviä 4700 ft:n korkeudessa
Hajonneita pilviä 5500 ft:n korkeudessa

METAR: KBMQ 282053Z AUTO 30018G26KT 10SM FEW047 BKN055 15/05 A2988 RMK AO2 PK WND 29031/2029 SLP111 T01500050 55003 $

Aika: 16:05 (22:05 UTC)


TAF: puuttuu

Säähavainnot ja -ennusteet yli 4000 lentoasemalta (METAR- ja TAF-raportit).

Käytössä olevat sääasemat on merkitty karttaan keltaisilla ja punaisilla pisteillä.

Aseta hiiri pisteen päälle nähdäksesi sääaseman nimen.

Klikkaa sitten nähdäksesi säähavainnot ja -ennusteet.

Kartan vaihtaminen: klikkaa mustalla rastilla varustettuja vihreitä pisteitä, niin voit zoomata sisään; viivalla varustettua vihreää pistettä, niin voit zoomata ulos tai vihreitä nuolia, niin pääset viereisille kartoille.


METAR-TAF: